createdAt,value
2023-01-10T00:01:07.636Z,11.48
2023-01-10T00:03:34.650Z,11.03
2023-01-10T00:06:01.466Z,11.68
2023-01-10T00:08:28.320Z,10.95
2023-01-10T00:10:55.278Z,11.85
2023-01-10T00:13:22.190Z,10.38
2023-01-10T00:15:50.357Z,10.97
2023-01-10T00:18:17.448Z,10.13
2023-01-10T00:20:44.787Z,11.93
2023-01-10T00:23:12.095Z,12.00
2023-01-10T00:25:39.546Z,12.45
2023-01-10T00:28:06.539Z,12.83
2023-01-10T00:30:33.455Z,11.07
2023-01-10T00:33:00.290Z,11.82
2023-01-10T00:35:27.252Z,9.15
2023-01-10T00:37:54.104Z,10.43
2023-01-10T00:40:20.990Z,11.20
2023-01-10T00:42:47.791Z,10.88
2023-01-10T00:45:14.759Z,10.90
2023-01-10T00:47:41.656Z,10.70
2023-01-10T00:50:09.220Z,10.73
2023-01-10T00:52:36.055Z,11.00
2023-01-10T00:55:03.060Z,11.23
2023-01-10T00:57:29.970Z,10.80
2023-01-10T00:59:56.795Z,12.10
2023-01-10T01:02:23.749Z,11.43
2023-01-10T01:04:50.708Z,10.27
2023-01-10T01:07:17.691Z,11.02
2023-01-10T01:09:44.555Z,11.35
2023-01-10T01:12:11.356Z,11.43
2023-01-10T01:14:38.227Z,11.32
2023-01-10T01:17:05.078Z,11.07
2023-01-10T01:19:32.042Z,11.38
2023-01-10T01:21:58.952Z,11.73
2023-01-10T01:24:25.858Z,11.80
2023-01-10T01:26:52.727Z,10.15
2023-01-10T01:29:19.730Z,9.23
2023-01-10T01:31:46.609Z,11.75
2023-01-10T01:34:13.573Z,9.50
2023-01-10T01:36:40.503Z,10.35
2023-01-10T01:39:07.540Z,10.50
2023-01-10T01:41:34.407Z,9.50
2023-01-10T01:44:07.895Z,10.93
2023-01-10T01:46:38.458Z,9.32
2023-01-10T01:49:11.586Z,10.65
2023-01-10T01:51:38.594Z,11.80
2023-01-10T01:54:09.873Z,10.63
2023-01-10T01:56:42.401Z,10.45
2023-01-10T01:59:20.631Z,10.02
2023-01-10T02:01:51.186Z,8.85
2023-01-10T02:04:21.670Z,11.23
2023-01-10T02:06:53.249Z,8.53
2023-01-10T02:09:34.818Z,10.85
2023-01-10T02:12:03.436Z,8.13
2023-01-10T02:14:32.256Z,9.73
2023-01-10T02:16:59.139Z,7.97
2023-01-10T02:19:48.947Z,9.03
2023-01-10T02:22:21.715Z,9.95
2023-01-10T02:24:48.503Z,10.65
2023-01-10T02:27:26.420Z,9.95
2023-01-10T02:30:02.540Z,10.15
2023-01-10T02:32:48.058Z,11.27
2023-01-10T02:35:38.321Z,12.23
2023-01-10T02:38:21.267Z,12.35
2023-01-10T02:41:02.939Z,13.38
2023-01-10T02:43:35.817Z,12.77
2023-01-10T02:46:19.844Z,13.60
2023-01-10T02:48:46.777Z,12.48
2023-01-10T02:51:20.160Z,13.48
2023-01-10T02:53:58.086Z,13.13
2023-01-10T02:56:31.111Z,13.43
2023-01-10T02:59:28.931Z,13.77
2023-01-10T03:02:17.458Z,13.85
2023-01-10T03:04:55.626Z,13.88
2023-01-10T03:07:38.441Z,13.95
2023-01-10T03:10:12.949Z,13.02
2023-01-10T03:12:53.271Z,13.47
2023-01-10T03:15:22.006Z,13.43
2023-01-10T03:17:53.737Z,13.55
2023-01-10T03:20:22.329Z,12.73
2023-01-10T03:22:51.500Z,9.93
2023-01-10T03:25:21.771Z,11.73
2023-01-10T03:28:00.372Z,13.23
2023-01-10T03:30:40.643Z,12.65
2023-01-10T03:33:08.466Z,11.15
2023-01-10T03:35:51.017Z,13.55
2023-01-10T03:38:30.310Z,13.70
2023-01-10T03:41:08.361Z,13.82
2023-01-10T03:43:47.750Z,13.60
2023-01-10T03:46:26.703Z,12.55
2023-01-10T03:48:57.964Z,13.77
2023-01-10T03:51:26.199Z,14.07
2023-01-10T03:53:53.396Z,13.70
2023-01-10T03:56:20.306Z,14.35
2023-01-10T03:58:47.250Z,14.13
2023-01-10T04:01:14.196Z,14.52
2023-01-10T04:03:41.206Z,14.60
2023-01-10T04:06:08.345Z,14.07
2023-01-10T04:08:35.285Z,12.65
2023-01-10T04:11:02.227Z,13.48
2023-01-10T04:13:29.156Z,14.05
2023-01-10T04:15:56.213Z,12.03
2023-01-10T04:18:23.689Z,11.20
2023-01-10T04:20:52.209Z,12.98
2023-01-10T04:23:19.225Z,15.52
2023-01-10T04:25:49.215Z,14.35
2023-01-10T04:28:16.149Z,15.03
2023-01-10T04:30:43.212Z,14.50
2023-01-10T04:33:10.194Z,14.80
2023-01-10T04:35:37.020Z,14.77
2023-01-10T04:38:03.982Z,14.40
2023-01-10T04:40:30.878Z,14.93
2023-01-10T04:42:57.691Z,15.07
2023-01-10T04:45:24.825Z,14.88
2023-01-10T04:47:53.032Z,13.75
2023-01-10T04:50:19.964Z,13.80
2023-01-10T04:52:46.876Z,14.53
2023-01-10T04:55:13.872Z,14.93
2023-01-10T04:57:40.807Z,15.07
2023-01-10T05:00:09.023Z,14.40
2023-01-10T05:02:36.322Z,14.77
2023-01-10T05:05:03.422Z,14.43
2023-01-10T05:07:30.323Z,14.60
2023-01-10T05:10:00.199Z,14.85
2023-01-10T05:12:27.110Z,15.35
2023-01-10T05:14:54.055Z,16.10
2023-01-10T05:17:20.983Z,14.50
2023-01-10T05:19:47.891Z,18.63
2023-01-10T05:22:14.777Z,19.35
2023-01-10T05:24:41.715Z,16.15
2023-01-10T05:27:08.667Z,15.85
2023-01-10T05:29:35.529Z,14.87
2023-01-10T05:32:02.590Z,14.57
2023-01-10T05:34:29.629Z,15.73
2023-01-10T05:36:56.587Z,15.38
2023-01-10T05:39:23.445Z,15.45
2023-01-10T05:41:50.428Z,14.50
2023-01-10T05:44:17.415Z,15.70
2023-01-10T05:46:44.352Z,15.20
2023-01-10T05:49:11.374Z,16.58
2023-01-10T05:51:38.464Z,15.95
2023-01-10T05:54:05.604Z,17.03
2023-01-10T05:56:32.444Z,15.13
2023-01-10T05:59:07.773Z,17.27
2023-01-10T06:01:36.663Z,16.98
2023-01-10T06:04:03.717Z,17.23
2023-01-10T06:06:30.580Z,16.83
2023-01-10T06:08:57.478Z,15.57
2023-01-10T06:11:24.501Z,14.13
2023-01-10T06:13:51.387Z,14.25
2023-01-10T06:16:18.378Z,17.80
2023-01-10T06:18:45.303Z,108.17
2023-01-10T06:21:12.344Z,65.53
2023-01-10T06:23:39.129Z,33.45
2023-01-10T06:26:06.286Z,17.90
2023-01-10T06:28:33.231Z,46.33
2023-01-10T06:31:00.275Z,18.03
2023-01-10T06:33:27.119Z,17.70
2023-01-10T06:35:54.176Z,17.55
2023-01-10T06:38:21.019Z,16.15
2023-01-10T06:40:47.940Z,14.70
2023-01-10T06:43:14.846Z,14.73
2023-01-10T06:45:41.739Z,15.70
2023-01-10T06:48:08.674Z,15.35
2023-01-10T06:50:35.652Z,16.20
2023-01-10T06:53:05.129Z,17.23
2023-01-10T06:55:32.589Z,18.47
2023-01-10T06:58:04.006Z,18.40
2023-01-10T07:00:32.173Z,17.13
2023-01-10T07:03:00.458Z,15.90
2023-01-10T07:05:27.958Z,17.50
2023-01-10T07:07:54.891Z,17.20
2023-01-10T07:10:21.832Z,16.20
2023-01-10T07:12:48.740Z,19.42
2023-01-10T07:15:15.795Z,21.42
2023-01-10T07:17:42.661Z,17.85
2023-01-10T07:20:10.452Z,17.17
2023-01-10T07:22:37.441Z,17.60
2023-01-10T07:25:06.172Z,17.88
2023-01-10T07:27:33.837Z,16.77
2023-01-10T07:30:00.937Z,16.23
2023-01-10T07:32:27.854Z,15.93
2023-01-10T07:34:54.689Z,16.23
2023-01-10T07:37:21.654Z,18.88
2023-01-10T07:39:48.574Z,16.98
2023-01-10T07:42:15.512Z,16.40
2023-01-10T07:44:42.387Z,17.93
2023-01-10T07:47:09.261Z,17.10
2023-01-10T07:49:36.246Z,16.80
2023-01-10T07:52:03.176Z,18.33
2023-01-10T07:54:30.000Z,20.65
2023-01-10T07:56:56.866Z,21.23
2023-01-10T07:59:23.795Z,20.60
2023-01-10T08:01:50.694Z,20.63
2023-01-10T08:04:17.620Z,19.80
2023-01-10T08:06:44.575Z,19.17
2023-01-10T08:09:11.551Z,21.17
2023-01-10T08:11:40.708Z,19.90
2023-01-10T08:14:08.342Z,19.75
2023-01-10T08:16:35.307Z,19.38
2023-01-10T08:19:02.193Z,19.60
2023-01-10T08:21:29.138Z,20.33
2023-01-10T08:23:56.020Z,19.20
2023-01-10T08:26:22.875Z,20.58
2023-01-10T08:28:49.860Z,19.95
2023-01-10T08:31:16.808Z,18.67
2023-01-10T08:33:43.780Z,17.10
2023-01-10T08:36:18.951Z,20.92
2023-01-10T08:38:46.280Z,19.45
2023-01-10T08:41:13.267Z,19.33
2023-01-10T08:43:40.290Z,19.08
2023-01-10T08:46:07.638Z,19.97
2023-01-10T08:48:34.588Z,20.00
2023-01-10T08:51:06.553Z,19.48
2023-01-10T08:53:33.388Z,15.30
2023-01-10T08:56:00.300Z,18.63
2023-01-10T08:58:27.349Z,19.17
2023-01-10T09:00:54.357Z,18.83
2023-01-10T09:03:21.440Z,18.52
2023-01-10T09:05:48.398Z,18.75
2023-01-10T09:08:15.297Z,19.10
2023-01-10T09:10:42.244Z,19.17
2023-01-10T09:13:09.060Z,19.85
2023-01-10T09:15:37.730Z,21.38
2023-01-10T09:18:07.208Z,18.35
2023-01-10T09:20:37.130Z,20.48
2023-01-10T09:23:13.846Z,20.03
2023-01-10T09:25:40.792Z,20.30
2023-01-10T09:28:07.687Z,19.67
2023-01-10T09:30:34.899Z,20.33
2023-01-10T09:33:02.938Z,22.35
2023-01-10T09:35:31.659Z,20.77
2023-01-10T09:38:00.204Z,20.80
2023-01-10T09:40:45.644Z,21.75
2023-01-10T09:43:43.493Z,21.00
2023-01-10T09:46:20.877Z,19.95
2023-01-10T09:49:01.445Z,20.60
2023-01-10T09:51:36.730Z,21.40
2023-01-10T09:54:12.538Z,20.80
2023-01-10T09:56:40.572Z,21.00
2023-01-10T09:59:17.750Z,22.20
2023-01-10T10:01:45.390Z,23.87
2023-01-10T10:04:23.050Z,23.50
2023-01-10T10:06:53.705Z,22.60
2023-01-10T10:09:30.318Z,22.27
2023-01-10T10:12:09.042Z,23.90
2023-01-10T10:15:03.563Z,24.27
2023-01-10T10:17:48.714Z,21.65
2023-01-10T10:20:28.412Z,23.55
2023-01-10T10:23:13.875Z,22.83
2023-01-10T10:26:06.809Z,21.02
2023-01-10T10:29:02.195Z,20.17
2023-01-10T10:31:50.329Z,21.02
2023-01-10T10:34:57.177Z,23.35
2023-01-10T10:37:59.356Z,21.00
2023-01-10T10:40:37.087Z,23.20
2023-01-10T10:43:16.079Z,23.13
2023-01-10T10:45:47.599Z,22.30
2023-01-10T10:48:29.833Z,23.52
2023-01-10T10:51:08.909Z,23.75
2023-01-10T10:53:36.552Z,23.38
2023-01-10T10:56:06.400Z,22.50
2023-01-10T10:58:34.028Z,22.92
2023-01-10T11:01:01.389Z,24.85
2023-01-10T11:03:47.409Z,23.65
2023-01-10T11:06:16.278Z,22.25
2023-01-10T11:08:46.509Z,22.63
2023-01-10T11:11:16.190Z,20.60
2023-01-10T11:14:04.272Z,22.95
2023-01-10T11:16:36.380Z,22.52
2023-01-10T11:19:19.261Z,23.15
2023-01-10T11:21:51.092Z,22.10
2023-01-10T11:24:23.419Z,21.77
2023-01-10T11:26:51.694Z,22.65
2023-01-10T11:29:59.094Z,22.27
2023-01-10T11:32:38.797Z,22.30
2023-01-10T11:35:16.425Z,21.30
2023-01-10T11:37:43.404Z,21.10
2023-01-10T11:40:23.639Z,22.38
2023-01-10T11:42:52.556Z,23.52
2023-01-10T11:45:19.357Z,21.50
2023-01-10T11:48:09.750Z,20.87
2023-01-10T11:50:40.317Z,23.05
2023-01-10T11:53:23.402Z,22.92
2023-01-10T11:55:50.429Z,21.52
2023-01-10T11:58:18.538Z,21.02
2023-01-10T12:00:48.564Z,21.90
2023-01-10T12:03:33.126Z,20.50
2023-01-10T12:06:18.275Z,22.77
2023-01-10T12:08:45.421Z,21.38
2023-01-10T12:11:18.345Z,18.77
2023-01-10T12:13:52.539Z,20.07
2023-01-10T12:16:20.947Z,21.15
2023-01-10T12:18:52.754Z,20.85
2023-01-10T12:21:41.849Z,19.15
2023-01-10T12:24:18.552Z,19.38
2023-01-10T12:26:46.688Z,21.43
2023-01-10T12:29:19.938Z,22.67
2023-01-10T12:31:46.821Z,21.88
2023-01-10T12:34:19.223Z,20.27
2023-01-10T12:37:06.364Z,20.27
2023-01-10T12:39:37.210Z,20.07
2023-01-10T12:42:09.896Z,19.10
2023-01-10T12:44:43.069Z,19.67
2023-01-10T12:47:30.990Z,19.10
2023-01-10T12:50:21.518Z,18.67
2023-01-10T12:52:52.840Z,18.57
2023-01-10T12:55:22.196Z,20.08
2023-01-10T12:57:52.348Z,19.85
2023-01-10T13:00:40.509Z,19.17
2023-01-10T13:03:14.216Z,21.85
2023-01-10T13:05:44.110Z,18.10
2023-01-10T13:08:14.300Z,17.10
2023-01-10T13:10:47.796Z,18.65
2023-01-10T13:13:52.610Z,16.60
2023-01-10T13:16:40.278Z,17.88
2023-01-10T13:19:10.394Z,17.13
2023-01-10T13:21:40.606Z,18.77
2023-01-10T13:24:21.693Z,16.45
2023-01-10T13:27:00.492Z,17.38
2023-01-10T13:29:48.562Z,17.77
2023-01-10T13:32:25.446Z,17.20
2023-01-10T13:34:52.859Z,16.85
2023-01-10T13:37:37.214Z,18.40
2023-01-10T13:40:05.536Z,17.40
2023-01-10T13:42:34.543Z,16.05
2023-01-10T13:45:01.544Z,16.53
2023-01-10T13:47:54.225Z,18.00
2023-01-10T13:50:24.009Z,17.10
2023-01-10T13:52:54.397Z,17.63
2023-01-10T13:55:40.903Z,18.70
2023-01-10T13:58:13.690Z,16.30
2023-01-10T14:00:40.694Z,14.30
2023-01-10T14:03:07.843Z,14.77
2023-01-10T14:05:34.833Z,15.13
2023-01-10T14:08:01.996Z,14.23
2023-01-10T14:10:33.995Z,16.10
2023-01-10T14:13:06.782Z,14.70
2023-01-10T14:15:40.668Z,13.65
2023-01-10T14:18:17.502Z,13.75
2023-01-10T14:20:45.188Z,13.77
2023-01-10T14:23:26.777Z,13.87
2023-01-10T14:25:56.871Z,12.88
2023-01-10T14:28:33.528Z,13.18
2023-01-10T14:31:19.030Z,13.93
2023-01-10T14:33:47.564Z,14.13
2023-01-10T14:36:24.095Z,14.00
2023-01-10T14:38:57.020Z,13.52
2023-01-10T14:41:32.803Z,13.93
2023-01-10T14:44:19.598Z,14.43
2023-01-10T14:46:51.916Z,13.88
2023-01-10T14:49:50.311Z,14.30
2023-01-10T14:52:20.185Z,13.57
2023-01-10T14:54:48.187Z,13.77
2023-01-10T14:57:20.788Z,13.32
2023-01-10T14:59:48.734Z,14.20
2023-01-10T15:02:25.527Z,14.97
2023-01-10T15:05:06.969Z,14.15
2023-01-10T15:07:34.048Z,14.48
2023-01-10T15:10:01.819Z,14.45
2023-01-10T15:12:30.782Z,13.88
2023-01-10T15:15:08.423Z,12.67
2023-01-10T15:17:37.241Z,14.13
2023-01-10T15:20:08.263Z,13.60
2023-01-10T15:22:36.792Z,13.40
2023-01-10T15:25:06.884Z,14.88
2023-01-10T15:27:34.165Z,13.83
2023-01-10T15:30:01.841Z,14.82
2023-01-10T15:32:35.690Z,14.43
2023-01-10T15:35:03.324Z,14.90
2023-01-10T15:37:35.701Z,15.13
2023-01-10T15:40:06.362Z,14.87
2023-01-10T15:42:33.511Z,15.13
2023-01-10T15:45:33.494Z,15.88
2023-01-10T15:48:00.466Z,15.50
2023-01-10T15:50:31.595Z,15.70
2023-01-10T15:53:04.997Z,15.33
2023-01-10T15:55:38.948Z,16.05
2023-01-10T15:58:35.059Z,16.58
2023-01-10T16:01:03.048Z,15.20
2023-01-10T16:03:49.090Z,15.35
2023-01-10T16:06:34.651Z,14.70
2023-01-10T16:09:17.852Z,14.20
2023-01-10T16:11:50.427Z,17.02
2023-01-10T16:14:17.390Z,16.08
2023-01-10T16:16:44.439Z,18.45
2023-01-10T16:19:13.926Z,16.30
2023-01-10T16:21:45.907Z,15.85
2023-01-10T16:24:27.191Z,15.45
2023-01-10T16:26:55.348Z,15.63
2023-01-10T16:29:22.820Z,16.33
2023-01-10T16:31:50.659Z,15.27
2023-01-10T16:34:18.052Z,14.75
2023-01-10T16:36:45.698Z,16.15
2023-01-10T16:39:16.590Z,15.80
2023-01-10T16:41:47.254Z,17.00
2023-01-10T16:44:14.208Z,15.87
2023-01-10T16:46:41.098Z,16.00
2023-01-10T16:49:08.036Z,15.32
2023-01-10T16:51:39.044Z,15.82
2023-01-10T16:54:06.099Z,15.55
2023-01-10T16:56:33.868Z,17.57
2023-01-10T16:59:00.807Z,16.00
2023-01-10T17:01:36.228Z,16.35
2023-01-10T17:04:08.489Z,16.95
2023-01-10T17:06:35.960Z,16.30
2023-01-10T17:09:02.957Z,15.77
2023-01-10T17:11:34.189Z,14.88
2023-01-10T17:14:01.654Z,16.27
2023-01-10T17:16:28.835Z,15.98
2023-01-10T17:18:55.791Z,16.00
2023-01-10T17:21:23.291Z,16.10
2023-01-10T17:23:51.284Z,16.25
2023-01-10T17:26:19.761Z,16.33
2023-01-10T17:28:46.714Z,15.45
2023-01-10T17:31:13.719Z,15.93
2023-01-10T17:33:40.651Z,16.03
2023-01-10T17:36:08.066Z,14.20
2023-01-10T17:38:34.996Z,15.23
2023-01-10T17:41:02.080Z,14.98
2023-01-10T17:43:30.019Z,15.73
2023-01-10T17:45:57.380Z,16.03
2023-01-10T17:48:24.824Z,14.85
2023-01-10T17:50:57.155Z,14.82
2023-01-10T17:53:26.285Z,14.95
2023-01-10T17:55:53.933Z,14.85
2023-01-10T17:58:21.795Z,14.30
2023-01-10T18:00:49.316Z,14.93
2023-01-10T18:03:16.868Z,15.43
2023-01-10T18:05:52.167Z,16.67
2023-01-10T18:08:19.860Z,14.32
2023-01-10T18:10:47.459Z,16.20
2023-01-10T18:13:16.043Z,16.25
2023-01-10T18:15:46.887Z,15.63
2023-01-10T18:18:13.769Z,16.33
2023-01-10T18:20:42.879Z,14.60
2023-01-10T18:23:14.190Z,15.00
2023-01-10T18:25:48.535Z,15.77
2023-01-10T18:28:17.036Z,15.45
2023-01-10T18:30:44.101Z,16.17
2023-01-10T18:33:11.040Z,15.52
2023-01-10T18:35:39.120Z,15.43
2023-01-10T18:38:08.827Z,16.13
2023-01-10T18:40:35.961Z,17.10
2023-01-10T18:43:02.904Z,16.13
2023-01-10T18:45:30.027Z,16.45
2023-01-10T18:48:00.036Z,16.40
2023-01-10T18:50:32.151Z,15.52
2023-01-10T18:53:00.009Z,16.42
2023-01-10T18:55:26.998Z,15.25
2023-01-10T18:57:54.014Z,16.25
2023-01-10T19:00:21.239Z,16.10
2023-01-10T19:02:48.189Z,15.52
2023-01-10T19:05:15.596Z,15.65
2023-01-10T19:07:45.372Z,16.35
2023-01-10T19:10:12.452Z,16.10
2023-01-10T19:12:39.442Z,16.80
2023-01-10T19:15:12.933Z,13.88
2023-01-10T19:17:41.506Z,14.77
2023-01-10T19:20:12.425Z,14.60
2023-01-10T19:22:41.059Z,15.07
2023-01-10T19:25:08.534Z,16.07
2023-01-10T19:27:35.821Z,15.30
2023-01-10T19:30:02.754Z,15.85
2023-01-10T19:32:36.447Z,14.13
2023-01-10T19:35:03.395Z,15.18
2023-01-10T19:37:31.766Z,14.50
2023-01-10T19:39:59.215Z,14.23
2023-01-10T19:42:26.440Z,15.52
2023-01-10T19:44:53.405Z,14.90
2023-01-10T19:47:22.596Z,15.40
2023-01-10T19:49:52.589Z,13.53
2023-01-10T19:52:19.585Z,13.90
2023-01-10T19:54:47.833Z,14.65
2023-01-10T19:57:17.577Z,15.48
2023-01-10T19:59:44.572Z,15.35
2023-01-10T20:02:14.751Z,16.27
2023-01-10T20:04:41.740Z,16.42
2023-01-10T20:07:10.737Z,15.63
2023-01-10T20:09:37.625Z,15.55
2023-01-10T20:12:04.601Z,13.48
2023-01-10T20:14:33.369Z,14.77
2023-01-10T20:17:00.275Z,13.43
2023-01-10T20:19:27.435Z,14.27
2023-01-10T20:21:54.394Z,14.82
2023-01-10T20:24:21.956Z,14.20
2023-01-10T20:26:50.760Z,14.43
2023-01-10T20:29:19.047Z,15.07
2023-01-10T20:31:49.154Z,14.32
2023-01-10T20:34:18.403Z,14.55
2023-01-10T20:36:45.312Z,14.23
2023-01-10T20:39:12.379Z,14.30
2023-01-10T20:47:58.266Z,14.80
2023-01-10T20:50:25.417Z,13.15
2023-01-10T20:52:55.217Z,13.37
2023-01-10T20:55:22.284Z,14.48
2023-01-10T20:57:49.496Z,13.77
2023-01-10T21:00:19.818Z,14.23
2023-01-10T21:02:46.647Z,13.48
2023-01-10T21:05:13.648Z,14.13
2023-01-10T21:07:40.535Z,15.10
2023-01-10T21:10:09.589Z,14.20
2023-01-10T21:12:36.828Z,14.52
2023-01-10T21:15:04.125Z,14.60
2023-01-10T21:17:31.054Z,14.27
2023-01-10T21:19:57.999Z,14.88
2023-01-10T21:22:25.178Z,14.15
2023-01-10T21:24:52.196Z,15.63
2023-01-10T21:27:19.235Z,16.15
2023-01-10T21:29:46.067Z,15.23
2023-01-10T21:32:13.058Z,14.32
2023-01-10T21:34:39.900Z,13.63
2023-01-10T21:37:06.800Z,14.40
2023-01-10T21:39:33.697Z,15.13
2023-01-10T21:42:00.564Z,13.90
2023-01-10T21:44:27.588Z,15.38
2023-01-10T21:46:54.474Z,15.93
2023-01-10T21:49:21.688Z,15.65
2023-01-10T21:51:48.755Z,14.93
2023-01-10T21:54:15.998Z,13.53
2023-01-10T21:56:42.896Z,13.77
2023-01-10T21:59:09.837Z,14.43
2023-01-10T22:01:36.868Z,13.98
2023-01-10T22:04:04.046Z,14.77
2023-01-10T22:06:31.328Z,14.00
2023-01-10T22:08:58.235Z,15.38
2023-01-10T22:11:25.175Z,15.00
2023-01-10T22:13:52.101Z,14.93
2023-01-10T22:16:19.079Z,15.95
2023-01-10T22:18:45.998Z,15.17
2023-01-10T22:21:12.865Z,14.48
2023-01-10T22:23:39.861Z,15.13
2023-01-10T22:26:10.088Z,14.18
2023-01-10T22:28:37.008Z,12.82
2023-01-10T22:31:04.773Z,13.67
2023-01-10T22:33:34.496Z,12.90
2023-01-10T22:36:18.456Z,13.43
2023-01-10T22:38:46.689Z,12.85
2023-01-10T22:41:22.132Z,12.85
2023-01-10T22:43:49.144Z,13.10
2023-01-10T22:46:16.320Z,14.25
2023-01-10T22:48:44.093Z,13.93
2023-01-10T22:51:11.697Z,11.57
2023-01-10T22:53:38.670Z,12.00
2023-01-10T22:56:10.387Z,11.83
2023-01-10T22:58:38.192Z,12.45
2023-01-10T23:01:06.576Z,13.02
2023-01-10T23:03:34.618Z,13.05
2023-01-10T23:06:01.595Z,13.20
2023-01-10T23:08:28.407Z,11.87
2023-01-10T23:10:55.352Z,12.70
2023-01-10T23:13:23.493Z,12.93
2023-01-10T23:16:02.336Z,13.82
2023-01-10T23:18:29.901Z,12.20
2023-01-10T23:20:57.403Z,12.53
2023-01-10T23:23:25.336Z,13.05
2023-01-10T23:25:52.781Z,12.57
2023-01-10T23:28:19.610Z,13.85
2023-01-10T23:30:46.543Z,12.63
2023-01-10T23:33:13.708Z,12.90
2023-01-10T23:35:40.630Z,13.60
2023-01-10T23:38:07.432Z,12.68
2023-01-10T23:40:34.344Z,13.65
2023-01-10T23:43:01.234Z,12.60
2023-01-10T23:45:28.142Z,12.33
2023-01-10T23:47:55.038Z,13.25
2023-01-10T23:50:21.977Z,13.30
2023-01-10T23:52:49.092Z,12.77
2023-01-10T23:55:16.071Z,12.82
2023-01-10T23:57:42.941Z,12.23
